Accueil
METAR-TAF:

METAR-TAF

Aéroports :

Nashua, New Hampshire, États-Unis

latitude: 42-47N, longitude: 071-31W, altitude: 61 m

Observation

Le bulletin a été fait il y a 43 minutes, à 17:56 UTC
Vent 11 kt de ouest avec des rafales jusqu'à 20 kt
Température 8°C
Humidité 42%
Pression 987 hPa
Visibilité: 16.1 km
Nuages fragmentés à une hauteur de 6000 ft
Ciel couvert à une hauteur de 7000 ft

METAR: KASH 101756Z 27011G20KT 10SM BKN060 OVC070 08/M04 A2914 RMK AO2 SLP872 6//// T00781044 10083 20044 55001 PNO $

Heure: 14:39 (18:39 UTC)


TAF: absent

Observations et prévisions météorologiques de plus de 4000 aéroports (messages METAR et TAF).

Les stations disponibles sont représentées par des disques jaunes et rouges sur la carte.

Passer la souris dessus pour voir le nom de la station.

Cliquer dessus pour voir les observations et prévisions météorologiques.

Pour changer de carte: cliquez sur les boutons verts avec une croix noire pour zoomer, sur le bouton vert avec un tiret pour effectuer un zoom arrière, ou sur les flèches vertes pour les cartes adjacentes.


METAR-TAF: